sensor_id;sensor_type;location;lat;lon;timestamp;temperature;humidity
11079;DHT22;5592;49.234;7.268;2024-01-11T00:01:47;-6.60;99.90
11079;DHT22;5592;49.234;7.268;2024-01-11T00:04:13;-6.60;99.90
11079;DHT22;5592;49.234;7.268;2024-01-11T00:06:44;-6.70;99.90
11079;DHT22;5592;49.234;7.268;2024-01-11T00:09:10;-6.70;99.90
11079;DHT22;5592;49.234;7.268;2024-01-11T00:11:36;-6.80;99.90
11079;DHT22;5592;49.234;7.268;2024-01-11T00:14:01;-6.70;99.90
11079;DHT22;5592;49.234;7.268;2024-01-11T00:16:27;-6.60;99.90
11079;DHT22;5592;49.234;7.268;2024-01-11T00:18:52;-6.50;99.90
11079;DHT22;5592;49.234;7.268;2024-01-11T00:21:18;-6.60;99.90
11079;DHT22;5592;49.234;7.268;2024-01-11T00:23:43;-6.60;99.90
11079;DHT22;5592;49.234;7.268;2024-01-11T00:26:12;-6.70;99.90
11079;DHT22;5592;49.234;7.268;2024-01-11T00:28:38;-6.70;99.90
11079;DHT22;5592;49.234;7.268;2024-01-11T00:31:03;-6.70;99.90
11079;DHT22;5592;49.234;7.268;2024-01-11T00:33:30;-6.80;99.90
11079;DHT22;5592;49.234;7.268;2024-01-11T00:35:55;-6.80;99.90
11079;DHT22;5592;49.234;7.268;2024-01-11T00:38:21;-6.90;99.90
11079;DHT22;5592;49.234;7.268;2024-01-11T00:40:46;-7.00;99.90
11079;DHT22;5592;49.234;7.268;2024-01-11T00:43:12;-7.10;99.90
11079;DHT22;5592;49.234;7.268;2024-01-11T00:45:37;-7.10;99.90
11079;DHT22;5592;49.234;7.268;2024-01-11T00:48:04;-7.20;99.90
11079;DHT22;5592;49.234;7.268;2024-01-11T00:50:29;-7.10;99.90
11079;DHT22;5592;49.234;7.268;2024-01-11T00:52:55;-6.90;99.90
11079;DHT22;5592;49.234;7.268;2024-01-11T00:55:21;-6.80;99.90
11079;DHT22;5592;49.234;7.268;2024-01-11T00:57:46;-6.80;99.90
11079;DHT22;5592;49.234;7.268;2024-01-11T01:00:15;-6.80;99.90
11079;DHT22;5592;49.234;7.268;2024-01-11T01:02:40;-6.90;99.90
11079;DHT22;5592;49.234;7.268;2024-01-11T01:05:06;-7.00;99.90
11079;DHT22;5592;49.234;7.268;2024-01-11T01:07:32;-7.10;99.90
11079;DHT22;5592;49.234;7.268;2024-01-11T01:09:57;-7.20;99.90
11079;DHT22;5592;49.234;7.268;2024-01-11T01:12:23;-7.30;99.90
11079;DHT22;5592;49.234;7.268;2024-01-11T01:14:51;-7.40;99.90
11079;DHT22;5592;49.234;7.268;2024-01-11T01:17:16;-7.40;99.90
11079;DHT22;5592;49.234;7.268;2024-01-11T01:19:42;-7.50;99.90
11079;DHT22;5592;49.234;7.268;2024-01-11T01:22:07;-7.50;99.90
11079;DHT22;5592;49.234;7.268;2024-01-11T01:24:33;-7.50;99.90
11079;DHT22;5592;49.234;7.268;2024-01-11T01:26:58;-7.60;99.90
11079;DHT22;5592;49.234;7.268;2024-01-11T01:29:24;-7.60;99.90
11079;DHT22;5592;49.234;7.268;2024-01-11T01:31:50;-7.60;99.90
11079;DHT22;5592;49.234;7.268;2024-01-11T01:34:16;-7.70;99.90
11079;DHT22;5592;49.234;7.268;2024-01-11T01:36:41;-7.70;99.90
11079;DHT22;5592;49.234;7.268;2024-01-11T01:39:07;-7.70;99.90
11079;DHT22;5592;49.234;7.268;2024-01-11T01:41:33;-7.70;99.90
11079;DHT22;5592;49.234;7.268;2024-01-11T01:43:58;-7.70;99.90
11079;DHT22;5592;49.234;7.268;2024-01-11T01:46:25;-7.70;99.90
11079;DHT22;5592;49.234;7.268;2024-01-11T01:48:53;-7.80;99.90
11079;DHT22;5592;49.234;7.268;2024-01-11T01:51:20;-7.80;99.90
11079;DHT22;5592;49.234;7.268;2024-01-11T01:53:46;-7.80;99.90
11079;DHT22;5592;49.234;7.268;2024-01-11T01:56:13;-7.80;99.90
11079;DHT22;5592;49.234;7.268;2024-01-11T01:58:38;-7.80;99.90
11079;DHT22;5592;49.234;7.268;2024-01-11T02:01:11;-7.80;99.90
11079;DHT22;5592;49.234;7.268;2024-01-11T02:03:37;-7.80;99.90
11079;DHT22;5592;49.234;7.268;2024-01-11T02:06:05;-7.80;99.90
11079;DHT22;5592;49.234;7.268;2024-01-11T02:08:31;-7.80;99.90
11079;DHT22;5592;49.234;7.268;2024-01-11T02:10:59;-7.80;99.90
11079;DHT22;5592;49.234;7.268;2024-01-11T02:13:25;-7.80;99.90
11079;DHT22;5592;49.234;7.268;2024-01-11T02:15:52;-7.80;99.90
11079;DHT22;5592;49.234;7.268;2024-01-11T02:18:17;-7.80;99.90
11079;DHT22;5592;49.234;7.268;2024-01-11T02:20:43;-7.80;99.90
11079;DHT22;5592;49.234;7.268;2024-01-11T02:23:14;-7.80;99.90
11079;DHT22;5592;49.234;7.268;2024-01-11T02:25:40;-7.90;99.90
11079;DHT22;5592;49.234;7.268;2024-01-11T02:28:05;-7.80;99.90
11079;DHT22;5592;49.234;7.268;2024-01-11T02:30:31;-7.80;99.90
11079;DHT22;5592;49.234;7.268;2024-01-11T02:32:57;-7.80;99.90
11079;DHT22;5592;49.234;7.268;2024-01-11T02:35:24;-7.80;99.90
11079;DHT22;5592;49.234;7.268;2024-01-11T02:37:50;-7.80;99.90
11079;DHT22;5592;49.234;7.268;2024-01-11T02:40:15;-7.80;99.90
11079;DHT22;5592;49.234;7.268;2024-01-11T02:42:41;-7.80;99.90
11079;DHT22;5592;49.234;7.268;2024-01-11T02:45:07;-7.80;99.90
11079;DHT22;5592;49.234;7.268;2024-01-11T02:47:33;-7.90;99.90
11079;DHT22;5592;49.234;7.268;2024-01-11T02:49:58;-7.90;99.90
11079;DHT22;5592;49.234;7.268;2024-01-11T02:52:24;-7.90;99.90
11079;DHT22;5592;49.234;7.268;2024-01-11T02:54:49;-8.00;99.90
11079;DHT22;5592;49.234;7.268;2024-01-11T02:57:15;-8.00;99.90
11079;DHT22;5592;49.234;7.268;2024-01-11T02:59:41;-8.00;99.90
11079;DHT22;5592;49.234;7.268;2024-01-11T03:02:10;-8.00;99.90
11079;DHT22;5592;49.234;7.268;2024-01-11T03:04:36;-8.00;99.90
11079;DHT22;5592;49.234;7.268;2024-01-11T03:07:01;-8.00;99.90
11079;DHT22;5592;49.234;7.268;2024-01-11T03:09:27;-8.00;99.90
11079;DHT22;5592;49.234;7.268;2024-01-11T03:11:52;-8.10;99.90
11079;DHT22;5592;49.234;7.268;2024-01-11T03:14:18;-8.00;99.90
11079;DHT22;5592;49.234;7.268;2024-01-11T03:16:43;-8.00;99.90
11079;DHT22;5592;49.234;7.268;2024-01-11T03:19:09;-8.10;99.90
11079;DHT22;5592;49.234;7.268;2024-01-11T03:21:34;-8.10;99.90
11079;DHT22;5592;49.234;7.268;2024-01-11T03:24:00;-8.10;99.90
11079;DHT22;5592;49.234;7.268;2024-01-11T03:26:25;-8.10;99.90
11079;DHT22;5592;49.234;7.268;2024-01-11T03:28:51;-8.20;99.90
11079;DHT22;5592;49.234;7.268;2024-01-11T03:31:16;-8.20;99.90
11079;DHT22;5592;49.234;7.268;2024-01-11T03:33:42;-8.20;99.90
11079;DHT22;5592;49.234;7.268;2024-01-11T03:36:09;-8.20;99.90
11079;DHT22;5592;49.234;7.268;2024-01-11T03:38:35;-8.20;99.90
11079;DHT22;5592;49.234;7.268;2024-01-11T03:41:00;-8.20;99.90
11079;DHT22;5592;49.234;7.268;2024-01-11T03:43:26;-8.20;99.90
11079;DHT22;5592;49.234;7.268;2024-01-11T03:45:51;-8.30;99.90
11079;DHT22;5592;49.234;7.268;2024-01-11T03:48:17;-8.20;99.90
11079;DHT22;5592;49.234;7.268;2024-01-11T03:50:42;-8.20;99.90
11079;DHT22;5592;49.234;7.268;2024-01-11T03:53:08;-8.20;99.90
11079;DHT22;5592;49.234;7.268;2024-01-11T03:55:33;-8.20;99.90
11079;DHT22;5592;49.234;7.268;2024-01-11T03:57:59;-8.20;99.90
11079;DHT22;5592;49.234;7.268;2024-01-11T04:00:25;-8.20;99.90
11079;DHT22;5592;49.234;7.268;2024-01-11T04:02:50;-8.20;99.90
11079;DHT22;5592;49.234;7.268;2024-01-11T04:05:15;-8.10;99.90
11079;DHT22;5592;49.234;7.268;2024-01-11T04:07:41;-8.10;99.90
11079;DHT22;5592;49.234;7.268;2024-01-11T04:10:07;-8.20;99.90
11079;DHT22;5592;49.234;7.268;2024-01-11T04:12:35;-8.20;99.90
11079;DHT22;5592;49.234;7.268;2024-01-11T04:15:01;-8.20;99.90
11079;DHT22;5592;49.234;7.268;2024-01-11T04:17:27;-8.20;99.90
11079;DHT22;5592;49.234;7.268;2024-01-11T04:19:52;-8.20;99.90
11079;DHT22;5592;49.234;7.268;2024-01-11T04:22:18;-8.10;99.90
11079;DHT22;5592;49.234;7.268;2024-01-11T04:24:44;-8.10;99.90
11079;DHT22;5592;49.234;7.268;2024-01-11T04:27:09;-8.20;99.90
11079;DHT22;5592;49.234;7.268;2024-01-11T04:29:35;-8.10;99.90
11079;DHT22;5592;49.234;7.268;2024-01-11T04:32:00;-8.10;99.90
11079;DHT22;5592;49.234;7.268;2024-01-11T04:34:26;-8.10;99.90
11079;DHT22;5592;49.234;7.268;2024-01-11T04:36:52;-8.10;99.90
11079;DHT22;5592;49.234;7.268;2024-01-11T04:39:18;-8.10;99.90
11079;DHT22;5592;49.234;7.268;2024-01-11T04:41:43;-7.90;99.90
11079;DHT22;5592;49.234;7.268;2024-01-11T04:44:10;-7.90;99.90
11079;DHT22;5592;49.234;7.268;2024-01-11T04:46:35;-7.80;99.90
11079;DHT22;5592;49.234;7.268;2024-01-11T04:49:01;-7.80;99.90
11079;DHT22;5592;49.234;7.268;2024-01-11T04:51:26;-7.90;99.90
11079;DHT22;5592;49.234;7.268;2024-01-11T04:53:52;-7.90;99.90
11079;DHT22;5592;49.234;7.268;2024-01-11T04:56:17;-8.00;99.90
11079;DHT22;5592;49.234;7.268;2024-01-11T04:58:44;-8.00;99.90
11079;DHT22;5592;49.234;7.268;2024-01-11T05:01:17;-8.00;99.90
11079;DHT22;5592;49.234;7.268;2024-01-11T05:03:47;-8.00;99.90
11079;DHT22;5592;49.234;7.268;2024-01-11T05:06:19;-8.10;99.90
11079;DHT22;5592;49.234;7.268;2024-01-11T05:08:54;-8.10;99.90
11079;DHT22;5592;49.234;7.268;2024-01-11T05:11:21;-8.20;99.90
11079;DHT22;5592;49.234;7.268;2024-01-11T05:13:48;-8.20;99.90
11079;DHT22;5592;49.234;7.268;2024-01-11T05:16:27;-8.20;99.90
11079;DHT22;5592;49.234;7.268;2024-01-11T05:18:54;-8.20;99.90
11079;DHT22;5592;49.234;7.268;2024-01-11T05:21:21;-8.20;99.90
11079;DHT22;5592;49.234;7.268;2024-01-11T05:23:47;-8.20;99.90
11079;DHT22;5592;49.234;7.268;2024-01-11T05:26:14;-8.30;99.90
11079;DHT22;5592;49.234;7.268;2024-01-11T05:28:39;-8.30;99.90
11079;DHT22;5592;49.234;7.268;2024-01-11T05:31:12;-8.20;99.90
11079;DHT22;5592;49.234;7.268;2024-01-11T05:33:39;-8.20;99.90
11079;DHT22;5592;49.234;7.268;2024-01-11T05:36:05;-8.20;99.90
11079;DHT22;5592;49.234;7.268;2024-01-11T05:38:31;-8.20;99.90
11079;DHT22;5592;49.234;7.268;2024-01-11T05:40:56;-8.20;99.90
11079;DHT22;5592;49.234;7.268;2024-01-11T05:43:22;-8.10;99.90
11079;DHT22;5592;49.234;7.268;2024-01-11T05:45:49;-8.10;99.90
11079;DHT22;5592;49.234;7.268;2024-01-11T05:48:15;-8.10;99.90
11079;DHT22;5592;49.234;7.268;2024-01-11T05:50:41;-8.10;99.90
11079;DHT22;5592;49.234;7.268;2024-01-11T05:53:07;-8.20;99.90
11079;DHT22;5592;49.234;7.268;2024-01-11T05:55:32;-8.20;99.90
11079;DHT22;5592;49.234;7.268;2024-01-11T05:58:01;-8.20;99.90
11079;DHT22;5592;49.234;7.268;2024-01-11T06:00:27;-8.20;99.90
11079;DHT22;5592;49.234;7.268;2024-01-11T06:02:52;-8.20;99.90
11079;DHT22;5592;49.234;7.268;2024-01-11T06:05:20;-8.20;99.90
11079;DHT22;5592;49.234;7.268;2024-01-11T06:07:45;-8.10;99.90
11079;DHT22;5592;49.234;7.268;2024-01-11T06:10:11;-8.10;99.90
11079;DHT22;5592;49.234;7.268;2024-01-11T06:12:36;-8.00;99.90
11079;DHT22;5592;49.234;7.268;2024-01-11T06:15:02;-8.00;99.90
11079;DHT22;5592;49.234;7.268;2024-01-11T06:17:28;-8.00;99.90
11079;DHT22;5592;49.234;7.268;2024-01-11T06:19:54;-7.90;99.90
11079;DHT22;5592;49.234;7.268;2024-01-11T06:22:20;-7.90;99.90
11079;DHT22;5592;49.234;7.268;2024-01-11T06:24:46;-7.90;99.90
11079;DHT22;5592;49.234;7.268;2024-01-11T06:27:11;-8.00;99.90
11079;DHT22;5592;49.234;7.268;2024-01-11T06:29:37;-8.00;99.90
11079;DHT22;5592;49.234;7.268;2024-01-11T06:32:02;-8.00;99.90
11079;DHT22;5592;49.234;7.268;2024-01-11T06:34:28;-8.10;99.90
11079;DHT22;5592;49.234;7.268;2024-01-11T06:36:55;-8.10;99.90
11079;DHT22;5592;49.234;7.268;2024-01-11T06:39:21;-8.10;99.90
11079;DHT22;5592;49.234;7.268;2024-01-11T06:41:47;-8.10;99.90
11079;DHT22;5592;49.234;7.268;2024-01-11T06:44:13;-8.10;99.90
11079;DHT22;5592;49.234;7.268;2024-01-11T06:46:38;-8.10;99.90
11079;DHT22;5592;49.234;7.268;2024-01-11T06:49:07;-8.00;99.90
11079;DHT22;5592;49.234;7.268;2024-01-11T06:51:33;-8.10;99.90
11079;DHT22;5592;49.234;7.268;2024-01-11T06:53:59;-8.10;99.90
11079;DHT22;5592;49.234;7.268;2024-01-11T06:56:26;-8.10;99.90
11079;DHT22;5592;49.234;7.268;2024-01-11T06:58:52;-8.10;99.90
11079;DHT22;5592;49.234;7.268;2024-01-11T07:01:18;-8.10;99.90
11079;DHT22;5592;49.234;7.268;2024-01-11T07:03:45;-8.10;99.90
11079;DHT22;5592;49.234;7.268;2024-01-11T07:06:16;-8.10;99.90
11079;DHT22;5592;49.234;7.268;2024-01-11T07:08:42;-8.10;99.90
11079;DHT22;5592;49.234;7.268;2024-01-11T07:11:07;-8.20;99.90
11079;DHT22;5592;49.234;7.268;2024-01-11T07:13:33;-8.10;99.90
11079;DHT22;5592;49.234;7.268;2024-01-11T07:15:59;-8.00;99.90
11079;DHT22;5592;49.234;7.268;2024-01-11T07:18:25;-8.00;99.90
11079;DHT22;5592;49.234;7.268;2024-01-11T07:20:56;-7.90;99.90
11079;DHT22;5592;49.234;7.268;2024-01-11T07:23:21;-7.80;99.90
11079;DHT22;5592;49.234;7.268;2024-01-11T07:25:47;-7.80;99.90
11079;DHT22;5592;49.234;7.268;2024-01-11T07:28:13;-7.70;99.90
11079;DHT22;5592;49.234;7.268;2024-01-11T07:30:38;-7.70;99.90
11079;DHT22;5592;49.234;7.268;2024-01-11T07:33:08;-7.60;99.90
11079;DHT22;5592;49.234;7.268;2024-01-11T07:35:34;-7.60;99.90
11079;DHT22;5592;49.234;7.268;2024-01-11T07:38:00;-7.60;99.90
11079;DHT22;5592;49.234;7.268;2024-01-11T07:40:25;-7.40;99.90
11079;DHT22;5592;49.234;7.268;2024-01-11T07:42:54;-7.30;99.90
11079;DHT22;5592;49.234;7.268;2024-01-11T07:48:07;-7.30;99.90
11079;DHT22;5592;49.234;7.268;2024-01-11T07:50:36;-7.30;99.90
11079;DHT22;5592;49.234;7.268;2024-01-11T07:53:09;-7.30;99.90
11079;DHT22;5592;49.234;7.268;2024-01-11T07:55:37;-7.30;99.90
11079;DHT22;5592;49.234;7.268;2024-01-11T07:58:13;-7.30;99.90
11079;DHT22;5592;49.234;7.268;2024-01-11T08:00:38;-7.20;99.90
11079;DHT22;5592;49.234;7.268;2024-01-11T08:03:04;-7.10;99.90
11079;DHT22;5592;49.234;7.268;2024-01-11T08:05:30;-7.10;99.90
11079;DHT22;5592;49.234;7.268;2024-01-11T08:07:55;-6.90;99.90
11079;DHT22;5592;49.234;7.268;2024-01-11T08:10:21;-6.80;99.90
11079;DHT22;5592;49.234;7.268;2024-01-11T08:12:46;-6.50;99.90
11079;DHT22;5592;49.234;7.268;2024-01-11T08:15:12;-6.10;99.90
11079;DHT22;5592;49.234;7.268;2024-01-11T08:17:39;-5.30;99.90
11079;DHT22;5592;49.234;7.268;2024-01-11T08:20:05;-4.30;99.90
11079;DHT22;5592;49.234;7.268;2024-01-11T08:22:34;-3.50;99.90
11079;DHT22;5592;49.234;7.268;2024-01-11T08:25:02;-2.40;99.90
11079;DHT22;5592;49.234;7.268;2024-01-11T08:27:30;-1.50;99.90
11079;DHT22;5592;49.234;7.268;2024-01-11T08:29:56;-0.80;99.90
11079;DHT22;5592;49.234;7.268;2024-01-11T08:32:23;-0.10;99.90
11079;DHT22;5592;49.234;7.268;2024-01-11T08:34:50;0.40;99.90
11079;DHT22;5592;49.234;7.268;2024-01-11T08:37:19;0.70;99.90
11079;DHT22;5592;49.234;7.268;2024-01-11T08:39:45;0.90;99.90
11079;DHT22;5592;49.234;7.268;2024-01-11T08:42:14;1.20;99.90
11079;DHT22;5592;49.234;7.268;2024-01-11T08:44:42;1.20;99.90
11079;DHT22;5592;49.234;7.268;2024-01-11T08:47:09;1.30;99.90
11079;DHT22;5592;49.234;7.268;2024-01-11T08:49:39;1.50;99.90
11079;DHT22;5592;49.234;7.268;2024-01-11T08:52:09;1.70;99.90
11079;DHT22;5592;49.234;7.268;2024-01-11T08:54:37;2.40;99.90
11079;DHT22;5592;49.234;7.268;2024-01-11T08:57:03;3.00;99.90
11079;DHT22;5592;49.234;7.268;2024-01-11T08:59:29;3.40;99.90
11079;DHT22;5592;49.234;7.268;2024-01-11T09:01:54;4.00;99.90
11079;DHT22;5592;49.234;7.268;2024-01-11T09:04:20;4.40;99.90
11079;DHT22;5592;49.234;7.268;2024-01-11T09:06:48;4.80;99.90
11079;DHT22;5592;49.234;7.268;2024-01-11T09:09:14;5.00;99.90
11079;DHT22;5592;49.234;7.268;2024-01-11T09:11:40;5.40;99.90
11079;DHT22;5592;49.234;7.268;2024-01-11T09:14:06;5.60;99.90
11079;DHT22;5592;49.234;7.268;2024-01-11T09:16:32;5.60;99.90
11079;DHT22;5592;49.234;7.268;2024-01-11T09:18:58;6.00;99.90
11079;DHT22;5592;49.234;7.268;2024-01-11T09:21:39;6.20;99.90
11079;DHT22;5592;49.234;7.268;2024-01-11T09:24:10;6.30;99.90
11079;DHT22;5592;49.234;7.268;2024-01-11T09:26:39;6.40;99.90
11079;DHT22;5592;49.234;7.268;2024-01-11T09:29:06;6.60;99.90
11079;DHT22;5592;49.234;7.268;2024-01-11T09:31:34;6.90;99.90
11079;DHT22;5592;49.234;7.268;2024-01-11T09:34:00;6.60;99.90
11079;DHT22;5592;49.234;7.268;2024-01-11T09:36:26;6.70;99.90
11079;DHT22;5592;49.234;7.268;2024-01-11T09:38:52;6.80;99.90
11079;DHT22;5592;49.234;7.268;2024-01-11T09:41:17;6.90;99.90
11079;DHT22;5592;49.234;7.268;2024-01-11T09:43:43;6.50;99.90
11079;DHT22;5592;49.234;7.268;2024-01-11T09:46:12;6.60;99.90
11079;DHT22;5592;49.234;7.268;2024-01-11T09:48:40;6.70;99.90
11079;DHT22;5592;49.234;7.268;2024-01-11T09:51:11;6.90;99.90
11079;DHT22;5592;49.234;7.268;2024-01-11T09:53:38;6.90;99.90
11079;DHT22;5592;49.234;7.268;2024-01-11T09:56:07;7.30;99.90
11079;DHT22;5592;49.234;7.268;2024-01-11T09:58:34;7.50;99.90
11079;DHT22;5592;49.234;7.268;2024-01-11T10:01:07;7.30;99.90
11079;DHT22;5592;49.234;7.268;2024-01-11T10:03:34;7.30;99.90
11079;DHT22;5592;49.234;7.268;2024-01-11T10:06:00;7.20;99.90
11079;DHT22;5592;49.234;7.268;2024-01-11T10:08:27;7.10;99.90
11079;DHT22;5592;49.234;7.268;2024-01-11T10:10:55;7.10;99.90
11079;DHT22;5592;49.234;7.268;2024-01-11T10:13:35;6.90;99.90
11079;DHT22;5592;49.234;7.268;2024-01-11T10:16:12;6.90;99.90
11079;DHT22;5592;49.234;7.268;2024-01-11T10:18:43;7.00;99.90
11079;DHT22;5592;49.234;7.268;2024-01-11T10:21:10;7.00;99.90
11079;DHT22;5592;49.234;7.268;2024-01-11T10:23:36;7.10;99.90
11079;DHT22;5592;49.234;7.268;2024-01-11T10:26:02;7.00;99.90
11079;DHT22;5592;49.234;7.268;2024-01-11T10:28:28;6.70;99.90
11079;DHT22;5592;49.234;7.268;2024-01-11T10:30:54;6.40;99.90
11079;DHT22;5592;49.234;7.268;2024-01-11T10:33:22;6.20;99.90
11079;DHT22;5592;49.234;7.268;2024-01-11T10:35:49;6.20;99.90
11079;DHT22;5592;49.234;7.268;2024-01-11T10:38:16;6.50;99.90
11079;DHT22;5592;49.234;7.268;2024-01-11T10:40:42;6.80;99.90
11079;DHT22;5592;49.234;7.268;2024-01-11T10:43:09;6.80;99.90
11079;DHT22;5592;49.234;7.268;2024-01-11T10:45:41;6.60;99.90
11079;DHT22;5592;49.234;7.268;2024-01-11T10:48:14;6.30;99.90
11079;DHT22;5592;49.234;7.268;2024-01-11T10:50:50;5.70;99.90
11079;DHT22;5592;49.234;7.268;2024-01-11T10:53:45;5.80;99.90
11079;DHT22;5592;49.234;7.268;2024-01-11T10:56:12;6.00;99.90
11079;DHT22;5592;49.234;7.268;2024-01-11T10:58:40;6.30;99.90
11079;DHT22;5592;49.234;7.268;2024-01-11T11:01:06;5.80;99.90
11079;DHT22;5592;49.234;7.268;2024-01-11T11:03:34;5.60;99.90
11079;DHT22;5592;49.234;7.268;2024-01-11T11:06:00;5.90;99.90
11079;DHT22;5592;49.234;7.268;2024-01-11T11:08:34;6.00;99.90
11079;DHT22;5592;49.234;7.268;2024-01-11T11:11:03;6.10;99.90
11079;DHT22;5592;49.234;7.268;2024-01-11T11:13:33;5.80;99.90
11079;DHT22;5592;49.234;7.268;2024-01-11T11:16:00;6.00;99.90
11079;DHT22;5592;49.234;7.268;2024-01-11T11:18:26;6.00;99.90
11079;DHT22;5592;49.234;7.268;2024-01-11T11:20:52;5.90;99.90
11079;DHT22;5592;49.234;7.268;2024-01-11T11:23:19;5.60;99.90
11079;DHT22;5592;49.234;7.268;2024-01-11T11:25:46;5.50;99.90
11079;DHT22;5592;49.234;7.268;2024-01-11T11:28:15;5.50;99.90
11079;DHT22;5592;49.234;7.268;2024-01-11T11:30:43;5.80;99.90
11079;DHT22;5592;49.234;7.268;2024-01-11T11:33:11;6.30;99.90
11079;DHT22;5592;49.234;7.268;2024-01-11T11:35:40;6.60;99.90
11079;DHT22;5592;49.234;7.268;2024-01-11T11:38:06;6.60;99.90
11079;DHT22;5592;49.234;7.268;2024-01-11T11:40:38;6.60;99.90
11079;DHT22;5592;49.234;7.268;2024-01-11T11:43:08;6.20;99.90
11079;DHT22;5592;49.234;7.268;2024-01-11T11:45:34;6.00;99.90
11079;DHT22;5592;49.234;7.268;2024-01-11T11:48:01;5.80;99.90
11079;DHT22;5592;49.234;7.268;2024-01-11T11:50:29;5.20;99.90
11079;DHT22;5592;49.234;7.268;2024-01-11T11:52:56;4.80;99.90
11079;DHT22;5592;49.234;7.268;2024-01-11T11:55:25;4.50;99.90
11079;DHT22;5592;49.234;7.268;2024-01-11T11:57:51;4.20;99.90
11079;DHT22;5592;49.234;7.268;2024-01-11T12:00:19;3.90;99.90
11079;DHT22;5592;49.234;7.268;2024-01-11T12:02:47;3.60;99.90
11079;DHT22;5592;49.234;7.268;2024-01-11T12:05:13;3.50;99.90
11079;DHT22;5592;49.234;7.268;2024-01-11T12:07:39;3.40;99.90
11079;DHT22;5592;49.234;7.268;2024-01-11T12:10:05;3.30;99.90
11079;DHT22;5592;49.234;7.268;2024-01-11T12:12:33;3.20;99.90
11079;DHT22;5592;49.234;7.268;2024-01-11T12:14:59;3.10;99.90
11079;DHT22;5592;49.234;7.268;2024-01-11T12:17:25;3.10;99.90
11079;DHT22;5592;49.234;7.268;2024-01-11T12:19:52;3.00;99.90
11079;DHT22;5592;49.234;7.268;2024-01-11T12:22:17;3.00;99.90
11079;DHT22;5592;49.234;7.268;2024-01-11T12:24:45;2.90;99.90
11079;DHT22;5592;49.234;7.268;2024-01-11T12:27:11;2.80;99.90
11079;DHT22;5592;49.234;7.268;2024-01-11T12:29:39;2.70;99.90
11079;DHT22;5592;49.234;7.268;2024-01-11T12:32:04;2.60;99.90
11079;DHT22;5592;49.234;7.268;2024-01-11T12:34:31;2.70;99.90
11079;DHT22;5592;49.234;7.268;2024-01-11T12:36:58;2.70;99.90
11079;DHT22;5592;49.234;7.268;2024-01-11T12:39:26;2.60;99.90
11079;DHT22;5592;49.234;7.268;2024-01-11T12:41:54;2.70;99.90
11079;DHT22;5592;49.234;7.268;2024-01-11T12:44:22;2.60;99.90
11079;DHT22;5592;49.234;7.268;2024-01-11T12:46:48;2.70;99.90
11079;DHT22;5592;49.234;7.268;2024-01-11T12:49:18;2.70;99.90
11079;DHT22;5592;49.234;7.268;2024-01-11T12:51:44;2.70;99.90
11079;DHT22;5592;49.234;7.268;2024-01-11T12:54:13;2.70;99.90
11079;DHT22;5592;49.234;7.268;2024-01-11T12:56:42;2.70;99.90
11079;DHT22;5592;49.234;7.268;2024-01-11T12:59:09;2.60;99.90
11079;DHT22;5592;49.234;7.268;2024-01-11T13:01:39;2.60;99.90
11079;DHT22;5592;49.234;7.268;2024-01-11T13:04:05;2.60;99.90
11079;DHT22;5592;49.234;7.268;2024-01-11T13:06:36;2.60;99.90
11079;DHT22;5592;49.234;7.268;2024-01-11T13:09:02;2.70;99.90
11079;DHT22;5592;49.234;7.268;2024-01-11T13:11:29;2.70;99.90
11079;DHT22;5592;49.234;7.268;2024-01-11T13:13:55;2.50;99.90
11079;DHT22;5592;49.234;7.268;2024-01-11T13:16:24;2.40;99.90
11079;DHT22;5592;49.234;7.268;2024-01-11T13:18:50;2.40;99.90
11079;DHT22;5592;49.234;7.268;2024-01-11T13:21:16;2.30;99.90
11079;DHT22;5592;49.234;7.268;2024-01-11T13:23:42;2.30;99.90
11079;DHT22;5592;49.234;7.268;2024-01-11T13:26:08;2.20;99.90
11079;DHT22;5592;49.234;7.268;2024-01-11T13:28:34;2.20;99.90
11079;DHT22;5592;49.234;7.268;2024-01-11T13:30:59;2.20;99.90
11079;DHT22;5592;49.234;7.268;2024-01-11T13:33:27;2.10;99.90
11079;DHT22;5592;49.234;7.268;2024-01-11T13:35:53;2.10;99.90
11079;DHT22;5592;49.234;7.268;2024-01-11T13:38:19;2.10;99.90
11079;DHT22;5592;49.234;7.268;2024-01-11T13:40:45;2.00;99.90
11079;DHT22;5592;49.234;7.268;2024-01-11T13:43:10;2.00;99.90
11079;DHT22;5592;49.234;7.268;2024-01-11T13:45:36;2.10;99.90
11079;DHT22;5592;49.234;7.268;2024-01-11T13:48:03;2.10;99.90
11079;DHT22;5592;49.234;7.268;2024-01-11T13:50:32;2.10;99.90
11079;DHT22;5592;49.234;7.268;2024-01-11T13:52:58;2.20;99.90
11079;DHT22;5592;49.234;7.268;2024-01-11T13:55:24;2.10;99.90
11079;DHT22;5592;49.234;7.268;2024-01-11T13:57:50;2.10;99.90
11079;DHT22;5592;49.234;7.268;2024-01-11T14:00:16;2.00;99.90
11079;DHT22;5592;49.234;7.268;2024-01-11T14:02:44;2.00;99.90
11079;DHT22;5592;49.234;7.268;2024-01-11T14:05:11;2.00;99.90
11079;DHT22;5592;49.234;7.268;2024-01-11T14:07:39;2.00;99.90
11079;DHT22;5592;49.234;7.268;2024-01-11T14:10:07;1.90;99.90
11079;DHT22;5592;49.234;7.268;2024-01-11T14:12:34;1.90;99.90
11079;DHT22;5592;49.234;7.268;2024-01-11T14:15:02;1.90;99.90
11079;DHT22;5592;49.234;7.268;2024-01-11T14:17:28;1.80;99.90
11079;DHT22;5592;49.234;7.268;2024-01-11T14:19:53;1.80;99.90
11079;DHT22;5592;49.234;7.268;2024-01-11T14:22:19;1.70;99.90
11079;DHT22;5592;49.234;7.268;2024-01-11T14:24:44;1.70;99.90
11079;DHT22;5592;49.234;7.268;2024-01-11T14:27:10;1.70;99.90
11079;DHT22;5592;49.234;7.268;2024-01-11T14:29:36;1.70;99.90
11079;DHT22;5592;49.234;7.268;2024-01-11T14:32:02;1.70;99.90
11079;DHT22;5592;49.234;7.268;2024-01-11T14:34:27;1.70;99.90
11079;DHT22;5592;49.234;7.268;2024-01-11T14:36:56;1.70;99.90
11079;DHT22;5592;49.234;7.268;2024-01-11T14:39:21;1.60;99.90
11079;DHT22;5592;49.234;7.268;2024-01-11T14:41:49;1.50;99.90
11079;DHT22;5592;49.234;7.268;2024-01-11T14:44:14;1.50;99.90
11079;DHT22;5592;49.234;7.268;2024-01-11T14:46:40;1.50;99.90
11079;DHT22;5592;49.234;7.268;2024-01-11T14:49:07;1.40;99.90
11079;DHT22;5592;49.234;7.268;2024-01-11T14:51:33;1.40;99.90
11079;DHT22;5592;49.234;7.268;2024-01-11T14:53:59;1.30;99.90
11079;DHT22;5592;49.234;7.268;2024-01-11T14:56:25;1.30;99.90
11079;DHT22;5592;49.234;7.268;2024-01-11T14:58:51;1.20;99.90
11079;DHT22;5592;49.234;7.268;2024-01-11T15:01:16;1.20;99.90
11079;DHT22;5592;49.234;7.268;2024-01-11T15:03:43;1.30;99.90
11079;DHT22;5592;49.234;7.268;2024-01-11T15:06:08;1.20;99.90
11079;DHT22;5592;49.234;7.268;2024-01-11T15:08:35;1.20;99.90
11079;DHT22;5592;49.234;7.268;2024-01-11T15:11:01;1.10;99.90
11079;DHT22;5592;49.234;7.268;2024-01-11T15:13:28;1.10;99.90
11079;DHT22;5592;49.234;7.268;2024-01-11T15:15:54;1.10;99.90
11079;DHT22;5592;49.234;7.268;2024-01-11T15:18:20;1.10;99.90
11079;DHT22;5592;49.234;7.268;2024-01-11T15:20:45;1.00;99.90
11079;DHT22;5592;49.234;7.268;2024-01-11T15:23:11;1.00;99.90
11079;DHT22;5592;49.234;7.268;2024-01-11T15:25:37;1.10;99.90
11079;DHT22;5592;49.234;7.268;2024-01-11T15:28:02;1.10;99.90
11079;DHT22;5592;49.234;7.268;2024-01-11T15:30:28;1.10;99.90
11079;DHT22;5592;49.234;7.268;2024-01-11T15:32:54;1.10;99.90
11079;DHT22;5592;49.234;7.268;2024-01-11T15:35:19;1.00;99.90
11079;DHT22;5592;49.234;7.268;2024-01-11T15:37:45;0.90;99.90
11079;DHT22;5592;49.234;7.268;2024-01-11T15:40:11;0.90;99.90
11079;DHT22;5592;49.234;7.268;2024-01-11T15:42:37;0.90;99.90
11079;DHT22;5592;49.234;7.268;2024-01-11T15:45:05;0.80;99.90
11079;DHT22;5592;49.234;7.268;2024-01-11T15:47:31;0.70;99.90
11079;DHT22;5592;49.234;7.268;2024-01-11T15:49:57;0.60;99.90
11079;DHT22;5592;49.234;7.268;2024-01-11T15:52:24;0.50;99.90